Latest Weather Observations for Sydney Olympic Park

IDN60901

Issued at 5:41 pm EDT Saturday 28 February 2015 (issued every 10 minutes, with the page automatically refreshed every 10 minutes)

About weather observations | Map of Sydney area stations | Latest observations for Sydney area | Other Formats
Station Details ID: 066212 Name: SYDNEY OLYMPIC PARK AWS (ARCHERY CENTRE) Lat: -33.83 Lon: 151.07 Height: 4.0 m
Data from the previous 72 hours. | See also: Recent months at Sydney Olympic Park
Date/Time
EDT
Tmp

°C
App
Tmp
°C
Dew
Point
°C
Rel
Hum
%
Delta-T

°C
Wind Press
QNH
hPa
Press
MSL
hPa
Rain
since
9 am
mm
Dir
 
Spd
km/h
Gust
km/h
Spd
kts
Gust
kts
28/05:30pm 28.1 30.6 21.1 65 4.6 ENE 9 19 5 10 - - 0.0
28/05:00pm 27.8 29.0 20.6 65 4.7 ENE 15 30 8 16 - - 0.0
28/04:30pm 27.7 28.7 20.3 64 4.9 ENE 15 22 8 12 - - 0.0
28/04:00pm 27.5 28.4 20.1 64 4.8 ENE 15 28 8 15 - - 0.0
28/03:30pm 28.6 29.8 20.6 62 5.3 ENE 15 22 8 12 - - 0.0
28/03:00pm 28.3 28.9 20.3 62 5.3 E 17 28 9 15 - - 0.0
28/02:30pm 28.3 29.1 20.6 63 5.1 ESE 17 24 9 13 - - 0.0
28/02:00pm 28.2 29.7 22.0 69 4.2 ESE 17 24 9 13 - - 0.0
28/01:30pm 27.9 29.7 21.9 70 4.0 ESE 15 22 8 12 - - 0.0
28/01:00pm 28.0 30.3 20.6 64 4.9 E 9 15 5 8 - - 0.0
28/12:30pm 26.9 28.2 18.5 60 5.4 E 9 11 5 6 - - 0.0
28/12:00pm 26.1 27.9 18.8 64 4.7 NE 7 11 4 6 - - 0.0
28/11:30am 25.5 27.4 18.9 67 4.2 SE 7 11 4 6 - - 0.0
28/11:00am 25.3 27.5 19.7 71 3.6 E 7 11 4 6 - - 0.0
28/10:30am 24.3 27.1 19.6 75 3.0 E 4 7 2 4 - - 0.0
28/10:00am 23.5 27.8 21.2 87 1.5 CALM 0 4 0 2 - - 0.0
28/09:30am 22.1 26.1 20.6 91 1.0 CALM 0 0 0 0 - - 0.0
28/09:00am 21.4 25.7 21.1 98 0.2 CALM 0 0 0 0 - - 6.4
28/08:30am 20.6 24.5 20.3 98 0.2 CALM 0 6 0 3 - - 6.4
28/08:00am 19.9 23.4 19.6 98 0.2 CALM 0 0 0 0 - - 6.4
28/07:30am 19.6 23.0 19.3 98 0.2 CALM 0 0 0 0 - - 6.4
28/07:00am 18.9 22.0 18.6 98 0.2 CALM 0 0 0 0 - - 6.4
28/06:30am 18.7 21.7 18.4 98 0.2 CALM 0 0 0 0 - - 6.4
28/05:30am 19.1 21.9 18.8 98 0.2 NE 2 7 1 4 - - 6.4
28/05:04am 18.9 21.6 18.6 98 0.2 N 2 7 1 4 - - 6.4
28/05:00am 18.9 21.6 18.6 98 0.2 N 2 7 1 4 - - 6.4
28/04:51am 19.0 22.1 18.7 98 0.2 CALM 0 0 0 0 - - 6.4
28/04:43am 19.0 22.1 18.7 98 0.2 CALM 0 0 0 0 - - 6.4
28/04:30am 18.9 22.0 18.6 98 0.2 CALM 0 0 0 0 - - 6.4
28/04:20am 19.0 22.1 18.7 98 0.2 CALM 0 0 0 0 - - 6.4
28/04:13am 18.9 22.0 18.6 98 0.2 CALM 0 0 0 0 - - 6.4
28/03:30am 19.2 22.4 18.9 98 0.2 CALM 0 0 0 0 - - 6.4
28/03:29am 19.2 22.4 18.9 98 0.2 CALM 0 0 0 0 - - 6.4
28/03:23am 19.2 22.4 18.9 98 0.2 CALM 0 0 0 0 - - 6.4
28/03:04am 19.3 22.6 19.0 98 0.2 CALM 0 0 0 0 - - 6.4
28/03:00am 19.3 22.6 19.0 98 0.2 CALM 0 0 0 0 - - 6.4
28/02:30am 19.5 22.8 19.2 98 0.2 CALM 0 0 0 0 - - 6.4
28/02:00am 19.7 23.1 19.4 98 0.2 CALM 0 0 0 0 - - 6.4
28/01:30am 19.8 23.3 19.5 98 0.2 CALM 0 0 0 0 - - 6.4
28/01:00am 20.1 23.7 19.8 98 0.2 CALM 0 0 0 0 - - 6.4
28/12:30am 20.2 23.8 19.7 97 0.3 CALM 0 0 0 0 - - 6.4
 
Date/Time
EDT
Tmp

°C
App
Tmp
°C
Dew
Point
°C
Rel
Hum
%
Delta-T

°C
Wind Press
QNH
hPa
Press
MSL
hPa
Rain
since
9 am
mm
Dir
 
Spd
km/h
Gust
km/h
Spd
kts
Gust
kts
27/11:30pm 20.9 24.7 20.1 95 0.5 CALM 0 0 0 0 - - 6.4
27/11:00pm 21.6 25.5 20.4 93 0.8 CALM 0 6 0 3 - - 6.4
27/10:30pm 22.5 26.6 20.8 90 1.1 CALM 0 0 0 0 - - 6.4
27/10:00pm 22.9 25.6 20.6 87 1.5 E 7 13 4 7 - - 6.4
27/09:30pm 23.0 25.9 20.7 87 1.5 ENE 6 11 3 6 - - 6.4
27/09:00pm 23.2 25.8 20.5 85 1.8 ENE 7 13 4 7 - - 6.4
27/08:30pm 23.5 26.1 20.4 83 2.0 E 7 11 4 6 - - 6.4
27/08:00pm 23.6 25.4 20.3 82 2.1 E 11 17 6 9 - - 6.4
27/07:30pm 24.1 25.1 20.2 79 2.5 E 15 22 8 12 - - 6.4
27/07:00pm 24.6 26.6 19.9 75 3.0 E 9 17 5 9 - - 6.4
27/06:30pm 25.0 25.9 20.0 74 3.2 ESE 15 22 8 12 - - 6.4
27/06:00pm 25.6 25.3 18.3 64 4.6 E 17 24 9 13 - - 6.4
27/05:30pm 26.1 26.1 18.2 61 5.0 E 15 20 8 11 - - 6.4
27/05:00pm 26.4 27.3 19.3 65 4.6 E 13 20 7 11 - - 6.4
27/04:30pm 26.8 27.4 19.4 64 4.8 E 15 22 8 12 - - 6.4
27/04:00pm 26.8 28.0 19.9 66 4.5 E 13 20 7 11 - - 6.4
27/03:30pm 27.1 28.1 20.2 66 4.5 E 15 22 8 12 - - 6.4
27/03:00pm 26.5 27.5 19.4 65 4.6 E 13 20 7 11 - - 6.4
27/02:30pm 26.4 27.6 19.8 67 4.3 ESE 13 24 7 13 - - 6.4
27/02:00pm 26.2 26.8 20.3 70 3.9 ESE 17 26 9 14 - - 6.4
27/01:30pm 25.9 27.8 21.3 76 3.0 SE 13 17 7 9 - - 6.4
27/01:00pm 25.5 27.1 20.7 75 3.1 ESE 13 19 7 10 - - 6.4
27/12:30pm 25.3 26.6 19.4 70 3.8 E 11 19 6 10 - - 6.4
27/12:00pm 25.9 28.3 20.9 74 3.3 E 9 15 5 8 - - 6.4
27/11:30am 25.1 26.9 21.2 79 2.6 ESE 13 19 7 10 - - 6.4
27/11:00am 22.8 26.8 21.3 91 1.0 WNW 2 7 1 4 - - 6.4
27/10:30am 22.0 25.2 21.7 98 0.2 NW 7 9 4 5 - - 6.4
27/10:16am 21.4 24.3 21.1 98 0.2 WNW 7 9 4 5 - - 6.4
27/10:00am 20.7 23.3 20.4 98 0.2 WNW 7 11 4 6 - - 6.4
27/09:30am 20.1 22.4 19.8 98 0.2 W 7 11 4 6 - - 3.2
27/09:00am 19.8 22.5 19.5 98 0.2 N 4 9 2 5 - - 6.0
27/08:56am 19.6 21.7 19.3 98 0.2 N 7 9 4 5 - - 5.6
27/08:49am 19.6 21.8 19.3 98 0.2 N 6 9 3 5 - - 5.2
27/08:30am 19.8 22.9 19.5 98 0.2 NW 2 7 1 4 - - 5.0
27/08:00am 19.5 21.5 18.8 96 0.4 WNW 6 11 3 6 - - 1.0
27/07:44am 19.7 22.3 18.5 93 0.7 W 2 6 1 3 - - 0.4
27/07:30am 19.5 21.8 18.5 94 0.6 W 4 7 2 4 - - 0.0
27/07:00am 18.9 20.7 18.2 96 0.4 WNW 6 9 3 5 - - 0.0
27/06:30am 18.5 21.0 17.3 93 0.7 CALM 0 0 0 0 - - 0.0
27/06:00am 18.9 20.8 17.6 92 0.8 WNW 4 7 2 4 - - 0.0
27/05:30am 19.5 21.1 18.2 92 0.8 WNW 7 11 4 6 - - 0.0
27/05:00am 19.3 21.0 18.0 92 0.8 WNW 6 9 3 5 - - 0.0
27/04:30am 19.5 22.0 18.2 92 0.8 WNW 2 7 1 4 - - 0.0
27/04:00am 19.6 21.7 18.1 91 0.9 WNW 4 9 2 5 - - 0.0
27/03:30am 19.6 21.1 18.1 91 0.9 WSW 7 13 4 7 - - 0.0
27/03:00am 19.9 21.8 18.9 94 0.6 SW 7 11 4 6 - - 0.0
27/02:30am 20.2 23.6 19.4 95 0.5 CALM 0 0 0 0 - - 0.0
27/02:00am 20.5 22.9 19.7 95 0.5 WSW 6 9 3 5 - - 0.0
27/01:30am 20.4 22.8 19.7 96 0.4 WSW 6 9 3 5 - - 0.0
27/01:00am 20.3 23.7 19.3 94 0.6 CALM 0 0 0 0 - - 0.0
27/12:30am 21.2 24.0 19.7 91 1.0 SW 4 7 2 4 - - 0.0
27/12:00am 21.6 23.6 19.9 90 1.1 SSW 9 13 5 7 - - 0.0
 
Date/Time
EDT
Tmp

°C
App
Tmp
°C
Dew
Point
°C
Rel
Hum
%
Delta-T

°C
Wind Press
QNH
hPa
Press
MSL
hPa
Rain
since
9 am
mm
Dir
 
Spd
km/h
Gust
km/h
Spd
kts
Gust
kts
26/11:30pm 21.9 26.0 20.7 93 0.8 CALM 0 0 0 0 - - 0.0
26/11:00pm 22.3 25.3 20.8 91 1.0 NNE 6 11 3 6 - - 0.0
26/10:30pm 22.0 25.9 20.3 90 1.1 CALM 0 2 0 1 - - 0.0
26/10:00pm 22.2 26.1 20.3 89 1.2 CALM 0 2 0 1 - - 0.0
26/09:30pm 22.7 26.7 20.6 88 1.4 CALM 0 0 0 0 - - 0.0
26/09:00pm 22.8 26.8 20.5 87 1.5 CALM 0 0 0 0 - - 0.0
26/08:30pm 23.0 25.2 20.3 85 1.7 NNE 9 13 5 7 - - 0.0
26/08:00pm 23.3 25.6 20.6 85 1.8 N 9 15 5 8 - - 0.0
26/07:30pm 23.7 25.9 20.4 82 2.1 ESE 9 13 5 7 - - 0.0
26/07:00pm 23.9 26.1 20.4 81 2.3 ESE 9 11 5 6 - - 0.0
26/06:30pm 24.3 26.8 20.2 78 2.7 SE 7 11 4 6 - - 0.0
26/06:00pm 24.9 27.1 20.4 76 2.9 ESE 9 13 5 7 - - 0.0
26/05:30pm 25.9 27.6 20.2 71 3.7 E 11 15 6 8 - - 0.0
26/05:00pm 25.8 27.6 20.4 72 3.5 E 11 15 6 8 - - 0.0
26/04:30pm 25.5 27.7 20.3 73 3.4 ESE 9 13 5 7 - - 0.0
26/04:00pm 25.9 28.3 20.0 70 3.8 E 7 15 4 8 - - 0.0
26/03:30pm 25.7 27.3 20.0 71 3.7 ESE 11 17 6 9 - - 0.0
26/03:00pm 26.7 28.9 20.3 68 4.2 E 9 15 5 8 - - 0.0
26/02:30pm 26.2 28.7 19.8 68 4.2 E 6 11 3 6 - - 0.0
26/02:00pm 25.6 28.1 19.0 67 4.2 ESE 4 7 2 4 - - 0.0
26/01:30pm 24.9 27.8 19.0 69 3.8 NE 2 6 1 3 - - 0.0
26/01:00pm 25.5 28.1 20.1 72 3.5 WNW 6 11 3 6 - - 0.0
26/12:30pm 24.3 26.4 19.4 74 3.1 WNW 7 11 4 6 - - 0.0
26/12:00pm 23.7 26.2 19.0 75 3.0 NNW 4 7 2 4 - - 0.0
26/11:30am 23.6 26.0 18.9 75 3.0 N 4 11 2 6 - - 0.0
26/11:00am 23.8 26.5 19.5 77 2.8 NW 4 9 2 5 - - 0.0
26/10:30am 23.0 24.3 19.4 80 2.3 NW 11 15 6 8 - - 0.0
26/10:00am 22.3 24.1 19.5 84 1.8 NW 9 17 5 9 - - 0.0
26/09:30am 21.3 23.1 19.6 90 1.1 WNW 9 13 5 7 - - 0.0
26/09:00am 20.5 22.5 19.2 92 0.8 W 7 9 4 5 - - 3.0
26/08:30am 19.6 21.3 18.6 94 0.6 W 7 11 4 6 - - 3.0
26/08:20am 19.3 21.2 18.5 95 0.5 WSW 6 9 3 5 - - 3.0
26/08:00am 19.4 21.3 18.6 95 0.5 W 6 9 3 5 - - 3.0
26/07:35am 19.3 21.6 18.5 95 0.5 NW 4 7 2 4 - - 2.8
26/07:30am 19.2 21.4 18.4 95 0.5 WNW 4 9 2 5 - - 2.8
26/07:00am 19.2 20.9 18.4 95 0.5 NW 7 9 4 5 - - 2.8
26/06:42am 19.3 21.1 18.3 94 0.6 NW 6 7 3 4 - - 2.8
26/06:30am 19.3 21.0 18.1 93 0.7 NW 6 9 3 5 - - 2.8
26/06:00am 19.7 22.0 17.8 89 1.2 NNW 2 7 1 4 - - 2.8
26/05:30am 19.9 22.5 17.5 86 1.5 CALM 0 4 0 2 - - 2.8
26/05:00am 19.9 22.5 17.5 86 1.5 CALM 0 0 0 0 - - 2.8
26/04:30am 19.8 22.5 17.8 88 1.2 CALM 0 0 0 0 - - 2.8
26/04:00am 19.8 22.4 17.6 87 1.3 CALM 0 7 0 4 - - 2.8
26/03:30am 19.7 22.2 17.3 86 1.5 CALM 0 0 0 0 - - 2.8
26/03:00am 19.6 22.1 17.2 86 1.5 CALM 0 0 0 0 - - 2.8
26/02:30am 19.9 22.3 16.9 83 1.8 CALM 0 0 0 0 - - 2.8
26/02:00am 20.1 21.0 16.7 81 2.1 SSW 7 9 4 5 - - 2.8
26/01:30am 20.3 22.3 16.9 81 2.1 SW 2 9 1 5 - - 2.8
26/01:00am 20.5 22.1 16.9 80 2.2 WSW 4 11 2 6 - - 2.8
26/12:30am 20.6 21.9 17.0 80 2.2 WSW 6 11 3 6 - - 2.8
26/12:00am 20.7 22.0 17.1 80 2.2 WSW 6 9 3 5 - - 2.8
 
Date/Time
EDT
Tmp

°C
App
Tmp
°C
Dew
Point
°C
Rel
Hum
%
Delta-T

°C
Wind Press
QNH
hPa
Press
MSL
hPa
Rain
since
9 am
mm
Dir
 
Spd
km/h
Gust
km/h
Spd
kts
Gust
kts
25/11:30pm 20.8 21.9 17.2 80 2.2 WSW 7 9 4 5 - - 2.8
25/11:00pm 21.0 22.6 17.8 82 2.0 SW 6 9 3 5 - - 2.8
25/10:30pm 20.9 23.8 18.3 85 1.6 CALM 0 6 0 3 - - 2.8
25/10:00pm 21.0 23.0 17.8 82 2.0 SSE 4 9 2 5 - - 2.8
25/09:30pm 21.0 22.6 17.8 82 2.0 SE 6 9 3 5 - - 2.8
25/09:00pm 21.2 22.7 18.0 82 2.0 SE 7 11 4 6 - - 2.8
25/08:30pm 21.2 22.5 17.6 80 2.2 SE 7 9 4 5 - - 2.8
25/08:00pm 21.3 23.1 17.5 79 2.3 SE 4 9 2 5 - - 2.8
25/07:30pm 21.4 21.9 17.4 78 2.5 SSE 11 19 6 10 - - 2.8
25/07:00pm 21.2 21.4 17.6 80 2.2 SE 13 19 7 10 - - 2.8
25/06:30pm 21.5 21.9 18.1 81 2.1 SSE 13 20 7 11 - - 2.8
25/06:00pm 21.4 21.5 18.4 83 1.9 SSE 15 26 8 14 - - 2.8

Latest Capital City Observations: Canberra | Sydney | Melbourne | Brisbane | Adelaide | Perth | Hobart | Darwin

Other Formats:

Comma delimited format used in spreadsheet applications
http://www.bom.gov.au/fwo/IDN60901/IDN60901.95765.axf

JavaScript Object Notation format (JSON) in row-major order
http://www.bom.gov.au/fwo/IDN60901/IDN60901.95765.json